DLH1556 EDDM-EDDF
Flight info
| Callsign | DLH1556 |
|---|---|
| Flight time | 0h 32m |
| Altitude | 24000 |
| Route | GIVMI6Q/08L GIVMI Y101 ERNAS T161 DEBHI DEBHI1B |
| Aircraft | A346/H-SDE2E3FGHIJ3J4J5M1RWXY/LB1D1 |
Departure
| Time | 2026-05-06 13:03 |
|---|---|
| Airport | Munich Airport (EDDM) |
Arrival
| Time | 2026-05-06 13:35 |
|---|---|
| Airport | Frankfurt Main Airport (EDDF) |
| Time | Latitude | Longitude | Altitude | Speed | Heading |
|---|---|---|---|---|---|
| 2026-05-06 11:58 | 48.35308 | 11.79363 | 1494 ft | 0 kts | 262° |
| 2026-05-06 12:48 | 48.35308 | 11.79365 | 1494 ft | 2 kts | 262° |
| 2026-05-06 12:49 | 48.35311 | 11.79403 | 1488 ft | 4 kts | 263° |
| 2026-05-06 12:49 | 48.35313 | 11.79434 | 1477 ft | 4 kts | 274° |
| 2026-05-06 12:49 | 48.35307 | 11.79464 | 1477 ft | 4 kts | 306° |
| 2026-05-06 12:49 | 48.35294 | 11.79481 | 1477 ft | 4 kts | 345° |
| 2026-05-06 12:50 | 48.35270 | 11.79486 | 1478 ft | 4 kts | 353° |
| 2026-05-06 12:50 | 48.35248 | 11.79490 | 1478 ft | 0 kts | 353° |
| 2026-05-06 12:55 | 48.35249 | 11.79489 | 1494 ft | 0 kts | 353° |
| 2026-05-06 12:55 | 48.35261 | 11.79487 | 1481 ft | 3 kts | 353° |
| 2026-05-06 12:56 | 48.35292 | 11.79482 | 1482 ft | 6 kts | 353° |
| 2026-05-06 12:56 | 48.35324 | 11.79476 | 1486 ft | 8 kts | 353° |
| 2026-05-06 12:56 | 48.35390 | 11.79465 | 1486 ft | 11 kts | 353° |
| 2026-05-06 12:56 | 48.35474 | 11.79451 | 1487 ft | 13 kts | 353° |
| 2026-05-06 12:57 | 48.35576 | 11.79433 | 1480 ft | 16 kts | 353° |
| 2026-05-06 12:57 | 48.35699 | 11.79411 | 1486 ft | 19 kts | 353° |
| 2026-05-06 12:57 | 48.35837 | 11.79387 | 1480 ft | 21 kts | 353° |
| 2026-05-06 12:57 | 48.35959 | 11.79340 | 1487 ft | 16 kts | 349° |
| 2026-05-06 12:58 | 48.36000 | 11.79331 | 1486 ft | 5 kts | 353° |
| 2026-05-06 12:58 | 48.36044 | 11.79321 | 1482 ft | 8 kts | 345° |
| 2026-05-06 12:58 | 48.36080 | 11.79265 | 1483 ft | 9 kts | 282° |
| 2026-05-06 12:58 | 48.36081 | 11.79146 | 1492 ft | 14 kts | 267° |
| 2026-05-06 12:59 | 48.36066 | 11.78975 | 1483 ft | 18 kts | 263° |
| 2026-05-06 12:59 | 48.36051 | 11.78777 | 1488 ft | 20 kts | 263° |
| 2026-05-06 12:59 | 48.36035 | 11.78554 | 1486 ft | 22 kts | 263° |
| 2026-05-06 12:59 | 48.36016 | 11.78309 | 1491 ft | 24 kts | 263° |
| 2026-05-06 13:00 | 48.35999 | 11.78081 | 1489 ft | 22 kts | 264° |
| 2026-05-06 13:00 | 48.35980 | 11.77842 | 1490 ft | 24 kts | 263° |
| 2026-05-06 13:00 | 48.35959 | 11.77583 | 1481 ft | 26 kts | 264° |
| 2026-05-06 13:00 | 48.35940 | 11.77322 | 1491 ft | 23 kts | 263° |
| 2026-05-06 13:01 | 48.35919 | 11.77072 | 1481 ft | 25 kts | 263° |
| 2026-05-06 13:01 | 48.35955 | 11.76837 | 1485 ft | 18 kts | 335° |
| 2026-05-06 13:01 | 48.36087 | 11.76810 | 1485 ft | 20 kts | 355° |
| 2026-05-06 13:01 | 48.36230 | 11.76824 | 1477 ft | 18 kts | 24° |
| 2026-05-06 13:02 | 48.36286 | 11.76927 | 1485 ft | 13 kts | 77° |
| 2026-05-06 13:02 | 48.36288 | 11.76939 | 1485 ft | 0 kts | 78° |
| 2026-05-06 13:02 | 48.36317 | 11.77274 | 1488 ft | 78 kts | 84° |
| 2026-05-06 13:02 | 48.36413 | 11.78531 | 1484 ft | 160 kts | 84° |
| 2026-05-06 13:03 | 48.36570 | 11.80546 | 1768 ft | 206 kts | 82° |
| 2026-05-06 13:03 | 48.36742 | 11.82686 | 2957 ft | 204 kts | 82° |
| 2026-05-06 13:03 | 48.36943 | 11.84942 | 4188 ft | 200 kts | 81° |
| 2026-05-06 13:03 | 48.37375 | 11.86989 | 4700 ft | 216 kts | 60° |
| 2026-05-06 13:04 | 48.38426 | 11.88718 | 5255 ft | 235 kts | 38° |
| 2026-05-06 13:04 | 48.39946 | 11.89816 | 5682 ft | 260 kts | 14° |
| 2026-05-06 13:04 | 48.41837 | 11.89894 | 6220 ft | 280 kts | 346° |
| 2026-05-06 13:04 | 48.43616 | 11.88645 | 6919 ft | 288 kts | 318° |
| 2026-05-06 13:05 | 48.44841 | 11.86305 | 7874 ft | 284 kts | 290° |
| 2026-05-06 13:05 | 48.45300 | 11.83457 | 8958 ft | 279 kts | 275° |
| 2026-05-06 13:05 | 48.45719 | 11.80615 | 9924 ft | 287 kts | 288° |
| 2026-05-06 13:05 | 48.46814 | 11.78006 | 10841 ft | 294 kts | 304° |
| 2026-05-06 13:06 | 48.48083 | 11.75619 | 11802 ft | 296 kts | 304° |
| 2026-05-06 13:06 | 48.49414 | 11.73205 | 12763 ft | 299 kts | 305° |
| 2026-05-06 13:06 | 48.50763 | 11.70797 | 13699 ft | 302 kts | 305° |
| 2026-05-06 13:06 | 48.52148 | 11.68339 | 14509 ft | 306 kts | 305° |
| 2026-05-06 13:07 | 48.53552 | 11.65851 | 15251 ft | 311 kts | 305° |
| 2026-05-06 13:07 | 48.55003 | 11.63283 | 16015 ft | 316 kts | 304° |
| 2026-05-06 13:07 | 48.56451 | 11.60722 | 16794 ft | 320 kts | 304° |
| 2026-05-06 13:07 | 48.57910 | 11.58140 | 17561 ft | 327 kts | 304° |
| 2026-05-06 13:08 | 48.59430 | 11.55435 | 17995 ft | 343 kts | 304° |
| 2026-05-06 13:08 | 48.61016 | 11.52610 | 18329 ft | 361 kts | 305° |
| 2026-05-06 13:08 | 48.62677 | 11.49617 | 18676 ft | 376 kts | 308° |
| 2026-05-06 13:08 | 48.64415 | 11.46486 | 19034 ft | 384 kts | 307° |
| 2026-05-06 13:09 | 48.66195 | 11.43401 | 19957 ft | 385 kts | 305° |
| 2026-05-06 13:09 | 48.67952 | 11.40308 | 20695 ft | 391 kts | 306° |
| 2026-05-06 13:09 | 48.69864 | 11.37294 | 21276 ft | 402 kts | 311° |
| 2026-05-06 13:09 | 48.72017 | 11.34520 | 21941 ft | 411 kts | 317° |
| 2026-05-06 13:10 | 48.74382 | 11.31992 | 22634 ft | 419 kts | 321° |
| 2026-05-06 13:10 | 48.76829 | 11.29544 | 23301 ft | 424 kts | 321° |
| 2026-05-06 13:10 | 48.79313 | 11.27074 | 23686 ft | 429 kts | 321° |
| 2026-05-06 13:10 | 48.81827 | 11.24551 | 23771 ft | 429 kts | 320° |
| 2026-05-06 13:11 | 48.84250 | 11.21896 | 23771 ft | 425 kts | 317° |
| 2026-05-06 13:11 | 48.86524 | 11.19041 | 23776 ft | 422 kts | 313° |
| 2026-05-06 13:11 | 48.88706 | 11.16045 | 23784 ft | 422 kts | 312° |
| 2026-05-06 13:11 | 48.90860 | 11.13024 | 23791 ft | 422 kts | 312° |
| 2026-05-06 13:12 | 48.93015 | 11.09997 | 23789 ft | 422 kts | 312° |
| 2026-05-06 13:12 | 48.95176 | 11.06971 | 23793 ft | 422 kts | 312° |
| 2026-05-06 13:12 | 48.97335 | 11.03949 | 23802 ft | 422 kts | 312° |
| 2026-05-06 13:12 | 48.99522 | 11.00884 | 23807 ft | 421 kts | 312° |
| 2026-05-06 13:13 | 49.01686 | 10.97849 | 23814 ft | 421 kts | 312° |
| 2026-05-06 13:13 | 49.03843 | 10.94819 | 23820 ft | 421 kts | 312° |
| 2026-05-06 13:13 | 49.05966 | 10.91833 | 23821 ft | 421 kts | 312° |
| 2026-05-06 13:13 | 49.08186 | 10.88707 | 23823 ft | 421 kts | 312° |
| 2026-05-06 13:14 | 49.10317 | 10.85698 | 23825 ft | 421 kts | 312° |
| 2026-05-06 13:14 | 49.12493 | 10.82622 | 23831 ft | 420 kts | 312° |
| 2026-05-06 13:14 | 49.14623 | 10.79605 | 23836 ft | 420 kts | 312° |
| 2026-05-06 13:14 | 49.16779 | 10.76549 | 23839 ft | 420 kts | 313° |
| 2026-05-06 13:15 | 49.18920 | 10.73509 | 23844 ft | 419 kts | 312° |
| 2026-05-06 13:15 | 49.20990 | 10.70386 | 23842 ft | 417 kts | 310° |
| 2026-05-06 13:15 | 49.23020 | 10.67204 | 23842 ft | 416 kts | 310° |
| 2026-05-06 13:15 | 49.25095 | 10.63923 | 23841 ft | 416 kts | 310° |
| 2026-05-06 13:16 | 49.27132 | 10.60701 | 23842 ft | 416 kts | 310° |
| 2026-05-06 13:16 | 49.29169 | 10.57482 | 23837 ft | 415 kts | 310° |
| 2026-05-06 13:16 | 49.31162 | 10.54329 | 23836 ft | 415 kts | 310° |
| 2026-05-06 13:16 | 49.33172 | 10.51149 | 23832 ft | 415 kts | 310° |
| 2026-05-06 13:17 | 49.35135 | 10.47917 | 23766 ft | 413 kts | 308° |
| 2026-05-06 13:17 | 49.36966 | 10.44504 | 23527 ft | 409 kts | 304° |
| 2026-05-06 13:17 | 49.38648 | 10.40966 | 23298 ft | 407 kts | 302° |
| 2026-05-06 13:17 | 49.40276 | 10.37402 | 22969 ft | 405 kts | 302° |
| 2026-05-06 13:18 | 49.41884 | 10.33858 | 22594 ft | 403 kts | 302° |
| 2026-05-06 13:18 | 49.43484 | 10.30332 | 22200 ft | 400 kts | 302° |
| 2026-05-06 13:18 | 49.45072 | 10.26837 | 21811 ft | 397 kts | 302° |
| 2026-05-06 13:18 | 49.46651 | 10.23362 | 21404 ft | 394 kts | 302° |
| 2026-05-06 13:19 | 49.48217 | 10.19915 | 21025 ft | 390 kts | 302° |
| 2026-05-06 13:19 | 49.49765 | 10.16505 | 20620 ft | 386 kts | 302° |
| 2026-05-06 13:19 | 49.51290 | 10.13136 | 20248 ft | 381 kts | 302° |
| 2026-05-06 13:19 | 49.52798 | 10.09802 | 19882 ft | 378 kts | 302° |
| 2026-05-06 13:20 | 49.54294 | 10.06492 | 19495 ft | 375 kts | 302° |
| 2026-05-06 13:20 | 49.55779 | 10.03200 | 19118 ft | 373 kts | 302° |
| 2026-05-06 13:20 | 49.57258 | 9.99918 | 18734 ft | 371 kts | 301° |
| 2026-05-06 13:20 | 49.58723 | 9.96660 | 18347 ft | 369 kts | 301° |
| 2026-05-06 13:21 | 49.60179 | 9.93415 | 17942 ft | 367 kts | 301° |
| 2026-05-06 13:21 | 49.61626 | 9.90188 | 17513 ft | 364 kts | 301° |
| 2026-05-06 13:21 | 49.63061 | 9.86985 | 17118 ft | 361 kts | 301° |
| 2026-05-06 13:21 | 49.64486 | 9.83802 | 16735 ft | 358 kts | 301° |
| 2026-05-06 13:22 | 49.65899 | 9.80645 | 16353 ft | 356 kts | 301° |
| 2026-05-06 13:22 | 49.67298 | 9.77512 | 15983 ft | 353 kts | 301° |
| 2026-05-06 13:22 | 49.68692 | 9.74391 | 15597 ft | 351 kts | 301° |
| 2026-05-06 13:22 | 49.70093 | 9.71248 | 15223 ft | 349 kts | 301° |
| 2026-05-06 13:23 | 49.71455 | 9.68186 | 14851 ft | 347 kts | 302° |
| 2026-05-06 13:23 | 49.72817 | 9.65121 | 14478 ft | 345 kts | 301° |
| 2026-05-06 13:23 | 49.74177 | 9.62058 | 14118 ft | 344 kts | 302° |
| 2026-05-06 13:23 | 49.75524 | 9.59019 | 13763 ft | 341 kts | 301° |
| 2026-05-06 13:24 | 49.76862 | 9.55998 | 13277 ft | 340 kts | 301° |
| 2026-05-06 13:24 | 49.78210 | 9.52945 | 12615 ft | 344 kts | 302° |
| 2026-05-06 13:24 | 49.79560 | 9.49890 | 12160 ft | 341 kts | 302° |
| 2026-05-06 13:24 | 49.80897 | 9.46865 | 11717 ft | 338 kts | 302° |
| 2026-05-06 13:25 | 49.82289 | 9.43945 | 11260 ft | 338 kts | 309° |
| 2026-05-06 13:25 | 49.83912 | 9.41334 | 10828 ft | 335 kts | 313° |
| 2026-05-06 13:25 | 49.85576 | 9.38811 | 10375 ft | 333 kts | 313° |
| 2026-05-06 13:25 | 49.87218 | 9.36346 | 10176 ft | 323 kts | 314° |
| 2026-05-06 13:26 | 49.88811 | 9.33964 | 9973 ft | 313 kts | 314° |
| 2026-05-06 13:26 | 49.90364 | 9.31649 | 9803 ft | 304 kts | 314° |
| 2026-05-06 13:26 | 49.91881 | 9.29384 | 9595 ft | 294 kts | 313° |
| 2026-05-06 13:26 | 49.93316 | 9.27244 | 9347 ft | 286 kts | 313° |
| 2026-05-06 13:27 | 49.94743 | 9.25117 | 9002 ft | 283 kts | 313° |
| 2026-05-06 13:27 | 49.96164 | 9.23002 | 8588 ft | 282 kts | 313° |
| 2026-05-06 13:27 | 49.97580 | 9.20899 | 8218 ft | 280 kts | 313° |
| 2026-05-06 13:27 | 49.98985 | 9.18816 | 7866 ft | 278 kts | 314° |
| 2026-05-06 13:28 | 50.00382 | 9.16743 | 7448 ft | 277 kts | 313° |
| 2026-05-06 13:28 | 50.01776 | 9.14677 | 7100 ft | 275 kts | 313° |
| 2026-05-06 13:28 | 50.03162 | 9.12624 | 6744 ft | 274 kts | 313° |
| 2026-05-06 13:28 | 50.04542 | 9.10576 | 6375 ft | 273 kts | 314° |
| 2026-05-06 13:29 | 50.05912 | 9.08537 | 6009 ft | 272 kts | 313° |
| 2026-05-06 13:29 | 50.07279 | 9.06504 | 5581 ft | 271 kts | 313° |
| 2026-05-06 13:29 | 50.08642 | 9.04478 | 5246 ft | 269 kts | 313° |
| 2026-05-06 13:29 | 50.09938 | 9.02389 | 4856 ft | 266 kts | 301° |
| 2026-05-06 13:30 | 50.10714 | 8.99810 | 4520 ft | 261 kts | 287° |
| 2026-05-06 13:30 | 50.11262 | 8.97120 | 4177 ft | 259 kts | 284° |
| 2026-05-06 13:30 | 50.11767 | 8.94442 | 3993 ft | 256 kts | 279° |
| 2026-05-06 13:30 | 50.11765 | 8.91690 | 3991 ft | 256 kts | 256° |
| 2026-05-06 13:31 | 50.11271 | 8.89042 | 3998 ft | 254 kts | 250° |
| 2026-05-06 13:31 | 50.10686 | 8.86462 | 3984 ft | 248 kts | 249° |
| 2026-05-06 13:31 | 50.10088 | 8.83975 | 3788 ft | 242 kts | 248° |
| 2026-05-06 13:31 | 50.09492 | 8.81530 | 3468 ft | 241 kts | 248° |
| 2026-05-06 13:32 | 50.08903 | 8.79101 | 3146 ft | 239 kts | 248° |
| 2026-05-06 13:32 | 50.08319 | 8.76682 | 2813 ft | 237 kts | 249° |
| 2026-05-06 13:32 | 50.07749 | 8.74309 | 2450 ft | 229 kts | 249° |
| 2026-05-06 13:32 | 50.07205 | 8.72037 | 2174 ft | 218 kts | 249° |
| 2026-05-06 13:33 | 50.06688 | 8.69875 | 1921 ft | 209 kts | 249° |
| 2026-05-06 13:33 | 50.06194 | 8.67813 | 1686 ft | 195 kts | 249° |
| 2026-05-06 13:33 | 50.05740 | 8.65914 | 1417 ft | 180 kts | 249° |
| 2026-05-06 13:33 | 50.05318 | 8.64153 | 1156 ft | 166 kts | 248° |
| 2026-05-06 13:34 | 50.04932 | 8.62535 | 920 ft | 152 kts | 249° |
| 2026-05-06 13:34 | 50.04577 | 8.61041 | 659 ft | 143 kts | 248° |
| 2026-05-06 13:34 | 50.04231 | 8.59591 | 544 ft | 143 kts | 249° |
| 2026-05-06 13:34 | 50.03895 | 8.58187 | 376 ft | 135 kts | 249° |
| 2026-05-06 13:35 | 50.03586 | 8.56897 | 366 ft | 101 kts | 249° |
| 2026-05-06 13:35 | 50.03447 | 8.56284 | 365 ft | 32 kts | 258° |
| 2026-05-06 13:35 | 50.03441 | 8.56032 | 358 ft | 21 kts | 276° |
| 2026-05-06 13:35 | 50.03452 | 8.55918 | 357 ft | 0 kts | 279° |
| 2026-05-06 13:36 | 50.03453 | 8.55901 | 353 ft | 3 kts | 279° |
| 2026-05-06 13:36 | 50.03459 | 8.55846 | 355 ft | 7 kts | 279° |
| 2026-05-06 13:36 | 50.03469 | 8.55752 | 358 ft | 11 kts | 279° |
| 2026-05-06 13:36 | 50.03483 | 8.55622 | 356 ft | 13 kts | 279° |
| 2026-05-06 13:37 | 50.03492 | 8.55520 | 362 ft | 15 kts | 271° |
| 2026-05-06 13:37 | 50.03462 | 8.55345 | 356 ft | 18 kts | 251° |
| 2026-05-06 13:37 | 50.03414 | 8.55146 | 360 ft | 21 kts | 248° |
| 2026-05-06 13:37 | 50.03359 | 8.54921 | 350 ft | 23 kts | 250° |
| 2026-05-06 13:38 | 50.03301 | 8.54673 | 355 ft | 25 kts | 249° |
| 2026-05-06 13:38 | 50.03314 | 8.54488 | 352 ft | 16 kts | 326° |
| 2026-05-06 13:38 | 50.03419 | 8.54418 | 357 ft | 17 kts | 340° |
| 2026-05-06 13:38 | 50.03534 | 8.54351 | 356 ft | 19 kts | 340° |
| 2026-05-06 13:39 | 50.03619 | 8.54309 | 353 ft | 4 kts | 3° |
| 2026-05-06 13:39 | 50.03644 | 8.54321 | 359 ft | 0 kts | 22° |
| 2026-05-06 13:39 | 50.03645 | 8.54321 | 359 ft | 0 kts | 26° |
| 2026-05-06 13:39 | 50.03645 | 8.54322 | 359 ft | 0 kts | 30° |
| 2026-05-06 13:40 | 50.03682 | 8.54420 | 359 ft | 22 kts | 66° |
| 2026-05-06 13:40 | 50.03719 | 8.54571 | 358 ft | 22 kts | 70° |
| 2026-05-06 13:40 | 50.03774 | 8.54803 | 357 ft | 24 kts | 70° |
| 2026-05-06 13:40 | 50.03820 | 8.54993 | 363 ft | 16 kts | 69° |
| 2026-05-06 13:41 | 50.03863 | 8.55173 | 362 ft | 19 kts | 69° |
| 2026-05-06 13:41 | 50.03919 | 8.55403 | 360 ft | 22 kts | 69° |
| 2026-05-06 13:41 | 50.03987 | 8.55688 | 360 ft | 25 kts | 70° |
| 2026-05-06 13:41 | 50.04041 | 8.55912 | 363 ft | 21 kts | 62° |
| 2026-05-06 13:42 | 50.04161 | 8.55940 | 365 ft | 18 kts | 342° |
| 2026-05-06 13:42 | 50.04271 | 8.55955 | 365 ft | 15 kts | 356° |
| 2026-05-06 13:42 | 50.04389 | 8.55905 | 368 ft | 17 kts | 343° |
| 2026-05-06 13:42 | 50.04508 | 8.55942 | 370 ft | 19 kts | 20° |
| 2026-05-06 13:43 | 50.04593 | 8.56118 | 368 ft | 21 kts | 64° |
| 2026-05-06 13:43 | 50.04632 | 8.56289 | 367 ft | 12 kts | 70° |
| 2026-05-06 13:43 | 50.04668 | 8.56442 | 369 ft | 5 kts | 70° |
| 2026-05-06 13:43 | 50.04690 | 8.56503 | 371 ft | 0 kts | 35° |
| 2026-05-06 13:44 | 50.04711 | 8.56514 | 370 ft | 5 kts | 4° |
| 2026-05-06 13:44 | 50.04739 | 8.56510 | 368 ft | 0 kts | 346° |
| 2026-05-06 13:44 | 50.04741 | 8.56509 | 369 ft | 1 kts | 350° |
| 2026-05-06 13:44 | 50.04755 | 8.56504 | 370 ft | 2 kts | 345° |
| 2026-05-06 13:45 | 50.04765 | 8.56500 | 371 ft | 0 kts | 343° |
| 2026-05-06 13:45 | 50.04773 | 8.56496 | 368 ft | 0 kts | 342° |
| 2026-05-06 13:45 | 50.04774 | 8.56496 | 368 ft | 0 kts | 342° |